Time,TemperatureF,DewpointF,PressureIn,WindDirection,WindDirectionDegrees,WindSpeedMPH,WindSpeedGustMPH,Humidity,HourlyPrecipIn,Conditions,Clouds,dailyrainin,SoftwareType,DateUTC
2015-05-28 00:12:00,66.5,65.0,30.08,SSW,210,0.0,3.0,94,0.00,,,0.00,weatherlink.com 1.10,2015-05-28 04:12:00,
2015-05-28 00:27:00,66.3,64.0,30.08,NNW,340,3.0,3.0,93,0.00,,,0.00,weatherlink.com 1.10,2015-05-28 04:27:00,
2015-05-28 00:42:00,65.8,64.0,30.08,NNW,346,1.0,1.0,94,0.00,,,0.00,weatherlink.com 1.10,2015-05-28 04:42:00,
2015-05-28 00:57:00,65.8,64.0,30.08,NNW,346,0.0,1.0,95,0.00,,,0.00,weatherlink.com 1.10,2015-05-28 04:57:00,
2015-05-28 01:12:00,65.9,65.0,30.07,NNW,346,1.0,1.0,95,0.00,,,0.00,weatherlink.com 1.10,2015-05-28 05:12:00,
2015-05-28 01:27:00,65.9,65.0,30.08,NNW,346,1.0,1.0,96,0.00,,,0.00,weatherlink.com 1.10,2015-05-28 05:27:00,
2015-05-28 01:42:00,65.9,65.0,30.08,NNW,346,0.0,1.0,96,0.00,,,0.00,weatherlink.com 1.10,2015-05-28 05:42:00,
2015-05-28 01:57:00,66.6,66.0,30.07,ESE,115,1.0,3.0,97,0.00,,,0.00,weatherlink.com 1.10,2015-05-28 05:57:00,
2015-05-28 02:12:00,66.4,65.0,30.07,ESE,116,1.0,3.0,96,0.00,,,0.00,weatherlink.com 1.10,2015-05-28 06:12:00,
2015-05-28 02:27:00,66.1,65.0,30.07,ESE,116,0.0,1.0,96,0.00,,,0.00,weatherlink.com 1.10,2015-05-28 06:27:00,
2015-05-28 02:42:00,66.0,65.0,30.07,ESE,116,2.0,3.0,96,0.00,,,0.00,weatherlink.com 1.10,2015-05-28 06:42:00,
2015-05-28 02:57:00,65.6,65.0,30.07,ESE,116,3.0,3.0,96,0.00,,,0.00,weatherlink.com 1.10,2015-05-28 06:57:00,
2015-05-28 03:12:00,65.2,64.0,30.07,SE,127,0.0,2.0,96,0.00,,,0.00,weatherlink.com 1.10,2015-05-28 07:12:00,
2015-05-28 03:27:00,65.0,64.0,30.07,SE,127,1.0,1.0,96,0.00,,,0.00,weatherlink.com 1.10,2015-05-28 07:27:00,
2015-05-28 03:42:00,65.4,65.0,30.07,SE,127,2.0,3.0,97,0.00,,,0.00,weatherlink.com 1.10,2015-05-28 07:42:00,
2015-05-28 03:57:00,64.3,64.0,30.07,SSE,156,5.0,5.0,97,0.00,,,0.00,weatherlink.com 1.10,2015-05-28 07:57:00,
2015-05-28 04:12:00,64.1,63.0,30.07,SSE,155,1.0,3.0,97,0.00,,,0.00,weatherlink.com 1.10,2015-05-28 08:12:00,
2015-05-28 04:27:00,64.2,63.0,30.07,SSE,155,1.0,3.0,97,0.00,,,0.00,weatherlink.com 1.10,2015-05-28 08:27:00,
2015-05-28 04:42:00,64.6,64.0,30.08,SSW,207,1.0,4.0,98,0.00,,,0.00,weatherlink.com 1.10,2015-05-28 08:42:00,
2015-05-28 04:57:00,64.3,64.0,30.08,South,184,1.0,3.0,97,0.00,,,0.00,weatherlink.com 1.10,2015-05-28 08:57:00,
2015-05-28 05:12:00,64.8,64.0,30.08,SE,129,3.0,4.0,98,0.00,,,0.00,weatherlink.com 1.10,2015-05-28 09:12:00,
2015-05-28 05:27:00,63.9,63.0,30.09,SE,128,4.0,5.0,97,0.00,,,0.00,weatherlink.com 1.10,2015-05-28 09:27:00,
2015-05-28 05:42:00,64.3,64.0,30.09,SE,134,3.0,8.0,98,0.00,,,0.00,weatherlink.com 1.10,2015-05-28 09:42:00,
2015-05-28 05:57:00,65.2,65.0,30.09,SE,144,5.0,7.0,98,0.00,,,0.00,weatherlink.com 1.10,2015-05-28 09:57:00,
2015-05-28 06:12:00,66.0,66.0,30.10,SSE,156,3.0,8.0,98,0.00,,,0.00,weatherlink.com 1.10,2015-05-28 10:12:00,
2015-05-28 06:27:00,67.0,67.0,30.11,ESE,122,8.0,10.0,98,0.00,,,0.00,weatherlink.com 1.10,2015-05-28 10:27:00,
2015-05-28 06:42:00,67.7,67.0,30.11,SSE,167,5.0,9.0,98,0.00,,,0.00,weatherlink.com 1.10,2015-05-28 10:42:00,
2015-05-28 06:58:00,67.9,67.0,30.11,SSE,167,5.0,8.0,98,0.00,,,0.00,weatherlink.com 1.10,2015-05-28 10:58:00,
2015-05-28 07:13:00,68.6,68.0,30.11,SE,146,6.0,7.0,97,0.00,,,0.00,weatherlink.com 1.10,2015-05-28 11:13:00,
2015-05-28 07:28:00,69.5,68.0,30.11,SE,140,3.0,7.0,96,0.00,,,0.00,weatherlink.com 1.10,2015-05-28 11:28:00,
2015-05-28 07:58:00,70.9,69.0,30.12,South,190,4.0,4.0,94,0.00,,,0.00,weatherlink.com 1.10,2015-05-28 11:58:00,
2015-05-28 08:28:00,72.5,70.0,30.13,SSW,198,2.0,8.0,90,0.00,,,0.00,weatherlink.com 1.10,2015-05-28 12:28:00,
2015-05-28 08:43:00,74.2,70.0,30.14,SSW,194,2.0,8.0,86,0.00,,,0.00,weatherlink.com 1.10,2015-05-28 12:43:00,
2015-05-28 08:58:00,75.4,69.0,30.14,SW,217,0.0,7.0,80,0.00,,,0.00,weatherlink.com 1.10,2015-05-28 12:58:00,
2015-05-28 09:13:00,76.6,67.0,30.14,WSW,254,5.0,8.0,73,0.00,,,0.00,weatherlink.com 1.10,2015-05-28 13:13:00,
2015-05-28 09:28:00,77.0,68.0,30.14,West,273,2.0,7.0,73,0.00,,,0.00,weatherlink.com 1.10,2015-05-28 13:28:00,
2015-05-28 09:43:00,76.9,68.0,30.14,SSW,207,4.0,4.0,74,0.00,,,0.00,weatherlink.com 1.10,2015-05-28 13:43:00,
2015-05-28 10:13:00,78.5,65.0,30.14,West,267,2.0,7.0,64,0.00,,,0.00,weatherlink.com 1.10,2015-05-28 14:13:00,
2015-05-28 10:28:00,79.1,66.0,30.14,NNW,328,2.0,5.0,65,0.00,,,0.00,weatherlink.com 1.10,2015-05-28 14:28:00,
2015-05-28 10:58:00,79.1,66.0,30.14,NNE,13,3.0,9.0,64,0.00,,,0.00,weatherlink.com 1.10,2015-05-28 14:58:00,
2015-05-28 11:13:00,79.8,67.0,30.14,WNW,288,8.0,11.0,65,0.00,,,0.00,weatherlink.com 1.10,2015-05-28 15:13:00,
2015-05-28 11:29:00,80.5,66.0,30.14,NW,318,3.0,8.0,62,0.00,,,0.00,weatherlink.com 1.10,2015-05-28 15:29:00,
2015-05-28 11:44:00,80.1,66.0,30.15,West,269,1.0,9.0,63,0.00,,,0.00,weatherlink.com 1.10,2015-05-28 15:44:00,
2015-05-28 11:59:00,81.1,66.0,30.15,SSW,203,2.0,11.0,61,0.00,,,0.00,weatherlink.com 1.10,2015-05-28 15:59:00,
2015-05-28 12:14:00,80.4,66.0,30.14,NNW,346,0.0,6.0,62,0.00,,,0.00,weatherlink.com 1.10,2015-05-28 16:14:00,
2015-05-28 12:30:00,81.2,65.0,30.14,NW,306,2.0,8.0,58,0.00,,,0.00,weatherlink.com 1.10,2015-05-28 16:30:00,
2015-05-28 12:44:00,81.0,65.0,30.14,SSW,203,2.0,9.0,59,0.00,,,0.00,weatherlink.com 1.10,2015-05-28 16:44:00,
2015-05-28 12:59:00,81.9,66.0,30.14,NW,311,3.0,10.0,58,0.00,,,0.00,weatherlink.com 1.10,2015-05-28 16:59:00,
2015-05-28 13:14:00,81.8,65.0,30.14,NNW,336,4.0,10.0,57,0.00,,,0.00,weatherlink.com 1.10,2015-05-28 17:14:00,
2015-05-28 13:29:00,81.5,66.0,30.14,NW,319,5.0,11.0,59,0.00,,,0.00,weatherlink.com 1.10,2015-05-28 17:29:00,
2015-05-28 13:44:00,82.7,65.0,30.14,WNW,302,4.0,12.0,56,0.00,,,0.00,weatherlink.com 1.10,2015-05-28 17:44:00,
2015-05-28 13:59:00,81.8,65.0,30.14,WNW,283,7.0,9.0,57,0.00,,,0.00,weatherlink.com 1.10,2015-05-28 17:59:00,
2015-05-28 14:14:00,82.9,66.0,30.14,WSW,251,1.0,10.0,56,0.00,,,0.00,weatherlink.com 1.10,2015-05-28 18:14:00,
2015-05-28 14:29:00,83.4,63.0,30.14,WNW,296,5.0,12.0,51,0.00,,,0.00,weatherlink.com 1.10,2015-05-28 18:29:00,
2015-05-28 14:44:00,83.7,64.0,30.14,WNW,284,3.0,13.0,52,0.00,,,0.00,weatherlink.com 1.10,2015-05-28 18:44:00,
2015-05-28 14:59:00,83.8,64.0,30.13,NNW,340,2.0,10.0,51,0.00,,,0.00,weatherlink.com 1.10,2015-05-28 18:59:00,
2015-05-28 15:14:00,83.7,65.0,30.13,West,267,6.0,10.0,54,0.00,,,0.00,weatherlink.com 1.10,2015-05-28 19:14:00,
2015-05-28 15:29:00,83.8,64.0,30.13,WNW,290,9.0,11.0,51,0.00,,,0.00,weatherlink.com 1.10,2015-05-28 19:29:00,
2015-05-28 15:44:00,84.1,65.0,30.12,NNW,329,10.0,12.0,52,0.00,,,0.00,weatherlink.com 1.10,2015-05-28 19:44:00,
2015-05-28 16:14:00,84.7,64.0,30.12,North,9,5.0,11.0,50,0.00,,,0.00,weatherlink.com 1.10,2015-05-28 20:14:00,
2015-05-28 16:29:00,84.9,64.0,30.12,NW,321,6.0,11.0,49,0.00,,,0.00,weatherlink.com 1.10,2015-05-28 20:29:00,
2015-05-28 16:44:00,84.8,63.0,30.12,WNW,300,5.0,13.0,48,0.00,,,0.00,weatherlink.com 1.10,2015-05-28 20:44:00,
2015-05-28 16:59:00,83.5,63.0,30.12,NW,311,5.0,14.0,50,0.00,,,0.00,weatherlink.com 1.10,2015-05-28 20:59:00,
2015-05-28 17:14:00,83.6,63.0,30.12,North,355,5.0,15.0,50,0.00,,,0.00,weatherlink.com 1.10,2015-05-28 21:14:00,
2015-05-28 17:29:00,82.9,62.0,30.12,NNW,334,6.0,14.0,50,0.00,,,0.00,weatherlink.com 1.10,2015-05-28 21:29:00,
2015-05-28 17:44:00,82.8,62.0,30.12,NNW,346,5.0,11.0,49,0.00,,,0.00,weatherlink.com 1.10,2015-05-28 21:44:00,
2015-05-28 17:59:00,82.9,61.0,30.11,NW,316,4.0,11.0,48,0.00,,,0.00,weatherlink.com 1.10,2015-05-28 21:59:00,
2015-05-28 18:14:00,82.0,61.0,30.11,NNW,346,6.0,11.0,49,0.00,,,0.00,weatherlink.com 1.10,2015-05-28 22:14:00,
2015-05-28 18:30:00,81.8,60.0,30.11,NNW,338,5.0,13.0,48,0.00,,,0.00,weatherlink.com 1.10,2015-05-28 22:30:00,
2015-05-28 18:44:00,80.9,60.0,30.12,North,355,3.0,10.0,50,0.00,,,0.00,weatherlink.com 1.10,2015-05-28 22:44:00,
2015-05-28 18:59:00,80.4,61.0,30.12,NNE,15,5.0,8.0,51,0.00,,,0.00,weatherlink.com 1.10,2015-05-28 22:59:00,
2015-05-28 19:14:00,80.2,61.0,30.12,North,360,2.0,6.0,52,0.00,,,0.00,weatherlink.com 1.10,2015-05-28 23:14:00,
2015-05-28 19:30:00,79.8,61.0,30.12,NW,313,4.0,4.0,52,0.00,,,0.00,weatherlink.com 1.10,2015-05-28 23:30:00,
2015-05-28 19:44:00,78.8,63.0,30.12,NNE,15,3.0,3.0,58,0.00,,,0.00,weatherlink.com 1.10,2015-05-28 23:44:00,
2015-05-28 20:00:00,77.3,62.0,30.12,North,5,4.0,4.0,59,0.00,,,0.00,weatherlink.com 1.10,2015-05-29 00:00:00,
2015-05-28 20:30:00,75.0,62.0,30.14,ENE,57,2.0,4.0,64,0.00,,,0.00,weatherlink.com 1.10,2015-05-29 00:30:00,
2015-05-28 20:45:00,73.9,63.0,30.14,East,101,4.0,4.0,69,0.00,,,0.00,weatherlink.com 1.10,2015-05-29 00:45:00,
2015-05-28 21:00:00,71.2,63.0,30.14,ENE,74,2.0,4.0,75,0.00,,,0.00,weatherlink.com 1.10,2015-05-29 01:00:00,
2015-05-28 21:15:00,70.7,63.0,30.15,East,95,3.0,4.0,77,0.00,,,0.00,weatherlink.com 1.10,2015-05-29 01:15:00,